createdAt,value
2017-08-10T09:12:00.869Z,11.83
2017-08-10T09:14:35.349Z,9.10
2017-08-10T09:17:09.834Z,9.13
2017-08-10T09:19:44.466Z,8.67
2017-08-10T09:22:19.130Z,9.10
2017-08-10T09:24:53.774Z,7.43
2017-08-10T09:27:28.270Z,7.23
2017-08-10T09:30:08.299Z,7.20
2017-08-10T09:32:42.922Z,6.87
2017-08-10T09:35:17.572Z,6.67
2017-08-10T09:37:52.019Z,5.50
2017-08-10T09:40:26.582Z,5.90
2017-08-10T09:43:01.037Z,6.00
2017-08-10T09:45:35.645Z,6.70
2017-08-10T09:48:19.259Z,4.87
2017-08-10T09:50:53.862Z,5.50
2017-08-10T09:53:28.413Z,5.13
2017-08-10T09:56:03.711Z,4.80
2017-08-10T09:58:38.346Z,4.80
2017-08-10T10:01:12.917Z,4.90
2017-08-10T10:03:47.334Z,5.43
2017-08-10T10:06:21.930Z,5.20
2017-08-10T10:08:56.483Z,5.83
2017-08-10T10:11:31.902Z,5.50
2017-08-10T10:14:06.581Z,4.77
2017-08-10T10:16:41.170Z,4.60
2017-08-10T10:19:15.812Z,4.90
2017-08-10T10:21:50.422Z,4.30
2017-08-10T10:24:25.087Z,4.20
2017-08-10T10:26:59.625Z,4.50
2017-08-10T10:29:34.193Z,5.20
2017-08-10T10:32:08.714Z,5.20
2017-08-10T10:34:43.310Z,3.63
2017-08-10T10:37:17.882Z,4.10
2017-08-10T10:39:52.486Z,4.43
2017-08-10T10:42:27.003Z,3.50
2017-08-10T10:45:01.573Z,4.50
2017-08-10T10:47:36.943Z,3.57
2017-08-10T10:50:13.990Z,4.10
2017-08-10T10:52:48.546Z,3.60
2017-08-10T10:55:18.234Z,3.50
2017-08-10T10:57:47.818Z,3.33
2017-08-10T11:00:17.429Z,4.17
2017-08-10T11:02:46.985Z,3.50
2017-08-10T11:05:17.426Z,3.13
2017-08-10T11:07:47.678Z,2.60
2017-08-10T11:10:17.321Z,3.37
2017-08-10T11:12:46.725Z,3.53
2017-08-10T11:15:16.606Z,4.57
2017-08-10T11:17:46.342Z,4.13
2017-08-10T11:20:15.830Z,4.00
2017-08-10T11:22:45.589Z,4.63
2017-08-10T11:25:15.961Z,4.00
2017-08-10T11:27:46.005Z,3.10
2017-08-10T11:30:15.686Z,3.30
2017-08-10T11:32:45.886Z,3.43
2017-08-10T11:35:15.929Z,4.17
2017-08-10T11:37:45.395Z,4.37
2017-08-10T11:40:16.791Z,2.70
2017-08-10T11:42:47.386Z,4.43
2017-08-10T11:45:17.754Z,5.00
2017-08-10T11:47:47.424Z,3.90
2017-08-10T11:50:16.969Z,4.30
2017-08-10T11:52:46.629Z,4.07
2017-08-10T11:55:16.181Z,3.10
2017-08-10T11:57:46.009Z,3.80
2017-08-10T12:00:15.742Z,4.40
2017-08-10T12:02:45.339Z,4.30
2017-08-10T12:05:17.666Z,5.23
2017-08-10T12:07:47.133Z,4.30
2017-08-10T12:10:17.821Z,4.00
2017-08-10T12:12:48.206Z,4.40
2017-08-10T12:15:17.954Z,5.50
2017-08-10T12:17:47.902Z,6.60
2017-08-10T12:20:18.425Z,6.10
2017-08-10T12:22:47.955Z,6.80
2017-08-10T12:25:18.050Z,5.90
2017-08-10T12:27:47.870Z,6.90
2017-08-10T12:30:18.373Z,6.80
2017-08-10T12:32:47.787Z,6.40
2017-08-10T12:35:18.210Z,6.80
2017-08-10T12:37:47.734Z,6.83
2017-08-10T12:40:19.077Z,7.80
2017-08-10T12:42:50.570Z,7.20
2017-08-10T12:45:20.330Z,8.73
2017-08-10T12:47:50.194Z,8.50
2017-08-10T12:50:19.841Z,8.17
2017-08-10T12:52:50.073Z,8.40
2017-08-10T12:55:20.182Z,9.37
2017-08-10T12:57:49.749Z,8.63
2017-08-10T13:00:19.361Z,10.30
2017-08-10T13:02:49.326Z,8.50
2017-08-10T13:05:19.954Z,8.77
2017-08-10T13:07:50.527Z,8.90
2017-08-10T13:10:20.409Z,9.10
2017-08-10T13:12:50.378Z,9.00
2017-08-10T13:15:21.774Z,10.27
2017-08-10T13:17:51.421Z,10.23
2017-08-10T13:20:21.558Z,9.80
2017-08-10T13:22:51.437Z,9.70
2017-08-10T13:25:21.431Z,9.20
2017-08-10T13:27:51.662Z,9.00
2017-08-10T13:30:21.712Z,8.33
2017-08-10T13:32:52.566Z,9.37
2017-08-10T13:35:22.326Z,8.43
2017-08-10T13:37:52.542Z,8.93
2017-08-10T13:40:22.154Z,8.10
2017-08-10T13:42:52.091Z,8.73
2017-08-10T13:45:21.946Z,8.87
2017-08-10T13:47:51.778Z,8.97
2017-08-10T13:50:21.358Z,8.23
2017-08-10T13:52:51.893Z,7.90
2017-08-10T13:55:21.963Z,7.80
2017-08-10T13:57:51.565Z,7.33
2017-08-10T14:00:35.827Z,8.87
2017-08-10T14:03:05.503Z,7.40
2017-08-10T14:05:35.557Z,8.07
2017-08-10T14:08:05.367Z,7.20
2017-08-10T14:10:35.622Z,7.10
2017-08-10T14:13:05.386Z,7.00
2017-08-10T14:15:35.265Z,6.30
2017-08-10T14:18:15.505Z,6.77
2017-08-10T14:20:45.409Z,6.40
2017-08-10T14:23:14.985Z,6.50
2017-08-10T14:25:44.590Z,6.57
2017-08-10T14:28:14.529Z,6.00
2017-08-10T14:30:44.598Z,7.27
2017-08-10T14:33:14.034Z,6.13
2017-08-10T14:35:44.864Z,8.33
2017-08-10T14:38:14.950Z,7.53
2017-08-10T14:40:45.026Z,6.23
2017-08-10T14:43:14.773Z,5.90
2017-08-10T14:45:45.169Z,6.27
2017-08-10T14:48:15.073Z,6.20
2017-08-10T14:50:45.086Z,7.33
2017-08-10T14:53:14.890Z,6.60
2017-08-10T14:55:44.654Z,9.90
2017-08-10T14:58:14.717Z,7.37
2017-08-10T15:00:45.250Z,8.30
2017-08-10T15:03:15.285Z,8.97
2017-08-10T15:05:44.935Z,7.00
2017-08-10T15:08:14.558Z,8.50
2017-08-10T15:10:44.913Z,7.40
2017-08-10T15:13:14.826Z,7.23
2017-08-10T15:15:44.785Z,6.80
2017-08-10T15:18:16.653Z,8.27
2017-08-10T15:20:46.242Z,7.47
2017-08-10T15:23:15.925Z,7.47
2017-08-10T15:25:45.645Z,7.40
2017-08-10T15:28:15.721Z,6.70
2017-08-10T15:30:55.150Z,6.30
2017-08-10T15:33:24.474Z,6.97
2017-08-10T15:35:54.055Z,7.37
2017-08-10T15:38:23.855Z,8.57
2017-08-10T15:40:53.583Z,7.57
2017-08-10T15:43:23.642Z,8.40
2017-08-10T15:45:54.294Z,8.70
2017-08-10T15:48:24.359Z,8.20
2017-08-10T15:50:53.858Z,9.43
2017-08-10T15:53:23.770Z,9.17
2017-08-10T15:55:53.229Z,8.93
2017-08-10T15:58:23.293Z,8.47
2017-08-10T16:00:52.898Z,8.40
2017-08-10T16:03:23.572Z,7.80
2017-08-10T16:05:53.738Z,7.03
2017-08-10T16:08:23.679Z,7.37
2017-08-10T16:10:53.642Z,6.97
2017-08-10T16:13:23.567Z,7.07
2017-08-10T16:15:53.469Z,8.63
2017-08-10T16:18:29.558Z,8.87
2017-08-10T16:20:58.879Z,8.70
2017-08-10T16:23:28.605Z,8.37
2017-08-10T16:25:58.350Z,8.57
2017-08-10T16:28:29.353Z,9.00
2017-08-10T16:30:59.417Z,8.43
2017-08-10T16:33:29.337Z,8.90
2017-08-10T16:36:00.010Z,7.77
2017-08-10T16:38:29.776Z,6.50
2017-08-10T16:40:59.998Z,7.50
2017-08-10T16:43:30.124Z,8.23
2017-08-10T16:45:59.745Z,7.63
2017-08-10T16:48:29.710Z,7.67
2017-08-10T16:50:59.358Z,8.37
2017-08-10T16:53:29.265Z,8.40
2017-08-10T16:56:00.270Z,7.00
2017-08-10T16:58:30.933Z,8.07
2017-08-10T17:01:01.647Z,7.40
2017-08-10T17:03:32.315Z,7.03
2017-08-10T17:06:02.319Z,6.40
2017-08-10T17:08:38.531Z,6.90
2017-08-10T17:11:08.564Z,7.80
2017-08-10T17:13:38.837Z,7.20
2017-08-10T17:16:08.349Z,7.80
2017-08-10T17:18:38.124Z,8.50
2017-08-10T17:21:08.493Z,6.23
2017-08-10T17:23:38.147Z,7.67
2017-08-10T17:26:08.474Z,7.37
2017-08-10T17:28:37.923Z,6.40
2017-08-10T17:31:08.179Z,7.73
2017-08-10T17:33:37.766Z,7.47
2017-08-10T17:36:15.938Z,6.97
2017-08-10T17:38:45.997Z,7.10
2017-08-10T17:41:15.601Z,7.80
2017-08-10T17:43:45.551Z,7.40
2017-08-10T17:46:15.165Z,8.90
2017-08-10T17:48:46.638Z,8.07
2017-08-10T17:51:16.593Z,10.47
2017-08-10T17:53:46.294Z,9.40
2017-08-10T17:56:15.895Z,11.50
2017-08-10T17:58:45.850Z,11.97
2017-08-10T18:01:15.455Z,9.50
2017-08-10T18:03:45.157Z,11.10
2017-08-10T18:06:16.421Z,11.40
2017-08-10T18:08:46.522Z,10.73
2017-08-10T18:11:16.470Z,10.97
2017-08-10T18:13:46.837Z,11.07
2017-08-10T18:16:17.566Z,11.43
2017-08-10T18:18:48.022Z,10.57
2017-08-10T18:21:18.289Z,10.80
2017-08-10T18:23:47.886Z,9.90
2017-08-10T18:26:18.554Z,11.57
2017-08-10T18:28:48.479Z,12.47
2017-08-10T18:31:17.962Z,11.83
2017-08-10T18:33:48.513Z,11.37
2017-08-10T18:36:18.280Z,12.87
2017-08-10T18:38:47.963Z,11.00
2017-08-10T18:41:17.915Z,12.80
2017-08-10T18:43:48.178Z,12.67
2017-08-10T18:46:18.621Z,12.73
2017-08-10T18:48:48.598Z,13.10
2017-08-10T18:51:18.693Z,13.00
2017-08-10T18:53:49.173Z,13.97
2017-08-10T18:56:18.962Z,13.23
2017-08-10T18:58:51.692Z,12.40
2017-08-10T19:01:22.298Z,14.03
2017-08-10T19:03:52.259Z,12.30
2017-08-10T19:06:22.194Z,12.87
2017-08-10T19:08:52.050Z,12.07
2017-08-10T19:11:21.862Z,14.50
2017-08-10T19:13:52.650Z,13.40
2017-08-10T19:16:22.757Z,12.30
2017-08-10T19:18:52.478Z,13.00
2017-08-10T19:21:23.525Z,12.37
2017-08-10T19:23:53.450Z,11.33
2017-08-10T19:26:22.985Z,13.00
2017-08-10T19:28:53.022Z,11.07
2017-08-10T19:31:22.984Z,11.70
2017-08-10T19:33:52.886Z,11.37
2017-08-10T19:36:22.814Z,11.97
2017-08-10T19:38:52.875Z,13.80
2017-08-10T19:41:23.302Z,13.00
2017-08-10T19:43:53.174Z,11.50
2017-08-10T19:46:23.231Z,14.30
2017-08-10T19:48:52.841Z,12.60
2017-08-10T19:51:22.499Z,11.63
2017-08-10T19:53:52.453Z,10.17
2017-08-10T19:56:22.613Z,11.20
2017-08-10T19:58:52.497Z,9.90
2017-08-10T20:01:22.113Z,7.63
2017-08-10T20:03:51.837Z,11.20
2017-08-10T20:06:21.505Z,15.13
2017-08-10T20:08:51.162Z,15.33
2017-08-10T20:11:22.558Z,12.70
2017-08-10T20:13:53.662Z,9.33
2017-08-10T20:16:23.918Z,8.67
2017-08-10T20:18:53.678Z,9.00
2017-08-10T20:21:23.438Z,8.60
2017-08-10T20:23:53.783Z,7.25
2017-08-10T20:26:24.052Z,7.60
2017-08-10T20:28:54.308Z,7.40
2017-08-10T20:31:23.615Z,8.73
2017-08-10T20:33:53.809Z,10.43
2017-08-10T20:36:23.539Z,9.83
2017-08-10T20:39:02.375Z,10.23
2017-08-10T20:41:32.125Z,9.20
2017-08-10T20:44:02.643Z,10.10
2017-08-10T20:46:32.861Z,9.33
2017-08-10T20:49:03.716Z,10.57
2017-08-10T20:51:34.406Z,12.50
2017-08-10T20:56:48.042Z,13.17
2017-08-10T20:59:18.418Z,14.77
2017-08-10T21:01:48.042Z,12.40
2017-08-10T21:04:17.498Z,11.80
2017-08-10T21:06:47.113Z,11.30
2017-08-10T21:09:17.469Z,12.70
2017-08-10T21:11:46.934Z,10.00
2017-08-10T21:14:17.154Z,11.90
2017-08-10T21:16:47.225Z,10.67
2017-08-10T21:19:17.137Z,11.47
2017-08-10T21:21:46.743Z,13.10
2017-08-10T21:24:16.730Z,11.70
2017-08-10T21:26:46.270Z,12.37
2017-08-10T21:29:16.647Z,16.13
2017-08-10T21:31:46.442Z,17.43
2017-08-10T21:34:16.183Z,13.97
2017-08-10T21:36:46.379Z,14.67
2017-08-10T21:39:16.331Z,15.10
2017-08-10T21:41:46.078Z,11.73
2017-08-10T21:44:17.365Z,13.90
2017-08-10T21:46:47.146Z,12.87
2017-08-10T21:49:16.817Z,15.30
2017-08-10T21:51:47.754Z,14.57
2017-08-10T21:54:17.485Z,15.37
2017-08-10T21:56:46.958Z,15.03
2017-08-10T21:59:16.557Z,12.20
2017-08-10T22:01:46.598Z,11.53
2017-08-10T22:04:16.236Z,12.23
2017-08-10T22:06:45.830Z,13.47
2017-08-10T22:09:16.682Z,12.30
2017-08-10T22:11:46.578Z,12.27
2017-08-10T22:14:17.110Z,12.10
2017-08-10T22:16:46.730Z,11.30
2017-08-10T22:19:16.497Z,14.10
2017-08-10T22:21:46.102Z,12.50
2017-08-10T22:24:17.357Z,11.53
2017-08-10T22:26:47.314Z,12.00
2017-08-10T22:29:17.078Z,12.53
2017-08-10T22:31:47.262Z,10.00
2017-08-10T22:34:17.790Z,10.97
2017-08-10T22:36:48.501Z,11.63
2017-08-10T22:39:18.330Z,11.00
2017-08-10T22:41:48.684Z,11.03
2017-08-10T22:44:18.562Z,11.73
2017-08-10T22:46:48.434Z,10.50
2017-08-10T22:49:19.307Z,12.10
2017-08-10T22:51:49.192Z,10.80
2017-08-10T22:54:18.853Z,12.27
2017-08-10T22:56:50.042Z,11.30
2017-08-10T22:59:20.427Z,10.60
2017-08-10T23:01:51.266Z,10.47
2017-08-10T23:04:21.824Z,10.00
2017-08-10T23:06:52.602Z,10.70
2017-08-10T23:09:22.590Z,9.77
2017-08-10T23:11:52.581Z,7.73
2017-08-10T23:14:22.308Z,9.13
2017-08-10T23:16:53.405Z,7.83
2017-08-10T23:19:23.130Z,7.90
2017-08-10T23:21:53.172Z,8.40
2017-08-10T23:24:23.256Z,6.73
2017-08-10T23:26:53.067Z,8.57
2017-08-10T23:29:23.721Z,7.07
2017-08-10T23:31:54.513Z,7.20
2017-08-10T23:34:24.638Z,8.53
2017-08-10T23:36:55.130Z,8.00
2017-08-10T23:39:25.052Z,7.90
2017-08-10T23:41:55.685Z,7.73
2017-08-10T23:44:25.497Z,7.63
2017-08-10T23:46:55.518Z,7.77
2017-08-10T23:49:26.201Z,7.07
2017-08-10T23:51:55.966Z,7.70
2017-08-10T23:54:25.890Z,9.40
2017-08-10T23:56:55.936Z,11.00
2017-08-10T23:59:25.989Z,14.90
